Skip Navigation LinksHome page > Weather > Current weather Skip Navigation Links

Current Weather

New Tokyo International (Narita), Tokyo

For information only: do not use for flight planning or navigation.
Latest weather
Observation time Monday, September 15, 2014 10:30 AM JST
Local time Monday, September 15, 2014 11:00 AM JST
Flight conditions Low Instrument Meteorological Conditions
Winds
Wind direction East-Southeast (120°)
Winds variable from 60° to 200°
Wind speed 5 mph
Visibility 6.2 mi.
Sky condition
Ceiling 0 ft. broken clouds
Cloud layer broken clouds 0 ft.
Cloud layer few clouds 1,500 ft.
Cloud layer scattered clouds 5,000 ft.
Temperature 73°F
Dewpoint 63°F
Altimeter 29.94 in.Hg
Derived measurements
Relative humidity 69%
Density altitude 1315 ft.
Remarks
No significant changes expected in the next two hours.
METAR RJAA 150130Z 12004KT 060V200 9999 FEW015 SCT050 BKN/// 23/17 Q1014 NOSIG RMK 1CU015 4SC050 A2996

Settings

Location code

InnerDrive.Weather 4.0.5356.0 Release CLR 4.0.30319.34014
Copyright ©2014 Inner Drive Technology. All rights reserved. Portions Copyright ©1986-2014 David Braverman.

Find weather

Site navigation


Skip Navigation Links

Place info

Page info

PayPal - The safer, easier way to pay online!

Return home.

Copyright ©2014 Inner Drive Technology. Purveyors of fine, hand-crafted computer software. Page printed 2014-09-15T02:00:21 UTC.